sensor_id;sensor_type;location;lat;lon;timestamp;pressure;altitude;pressure_sealevel;temperature;humidity
7058;BME280;3570;43.080;25.628;2022-08-03T00:00:58;-20065.03;;;21.06;100.00
7058;BME280;3570;43.080;25.628;2022-08-03T00:03:43;-20062.13;;;20.96;100.00
7058;BME280;3570;43.080;25.628;2022-08-03T00:06:27;-20056.03;;;20.75;100.00
7058;BME280;3570;43.080;25.628;2022-08-03T00:09:11;-20074.00;;;21.37;100.00
7058;BME280;3570;43.080;25.628;2022-08-03T00:11:55;-20089.63;;;21.92;99.07
7058;BME280;3570;43.080;25.628;2022-08-03T00:14:39;-20094.84;;;22.10;97.15
7058;BME280;3570;43.080;25.628;2022-08-03T00:17:23;-20085.00;;;21.76;98.38
7058;BME280;3570;43.080;25.628;2022-08-03T00:20:07;-20070.66;;;21.26;100.00
7058;BME280;3570;43.080;25.628;2022-08-03T00:22:51;-20072.56;;;21.32;100.00
7058;BME280;3570;43.080;25.628;2022-08-03T00:25:35;-20077.19;;;21.48;100.00
7058;BME280;3570;43.080;25.628;2022-08-03T00:28:20;-20075.16;;;21.41;100.00
7058;BME280;3570;43.080;25.628;2022-08-03T00:31:05;-20063.28;;;21.00;100.00
7058;BME280;3570;43.080;25.628;2022-08-03T00:33:49;-20066.63;;;21.12;100.00
7058;BME280;3570;43.080;25.628;2022-08-03T00:36:33;-20068.50;;;21.18;100.00
7058;BME280;3570;43.080;25.628;2022-08-03T00:39:17;-20072.84;;;21.33;100.00
7058;BME280;3570;43.080;25.628;2022-08-03T00:42:05;-20083.41;;;21.70;100.00
7058;BME280;3570;43.080;25.628;2022-08-03T00:44:49;-20095.41;;;22.12;98.54
7058;BME280;3570;43.080;25.628;2022-08-03T00:47:33;-20104.97;;;22.45;94.59
7058;BME280;3570;43.080;25.628;2022-08-03T00:50:20;-20116.53;;;22.85;91.91
7058;BME280;3570;43.080;25.628;2022-08-03T00:53:06;-20125.22;;;23.15;89.42
7058;BME280;3570;43.080;25.628;2022-08-03T00:55:51;-20124.50;;;23.13;88.91
7058;BME280;3570;43.080;25.628;2022-08-03T00:58:35;-20117.41;;;22.88;90.10
7058;BME280;3570;43.080;25.628;2022-08-03T01:01:19;-20114.53;;;22.78;91.13
7058;BME280;3570;43.080;25.628;2022-08-03T01:04:03;-20115.97;;;22.83;90.75
7058;BME280;3570;43.080;25.628;2022-08-03T01:07:05;-20124.63;;;23.13;89.17
7058;BME280;3570;43.080;25.628;2022-08-03T01:13:04;-20132.00;;;23.39;86.46
7058;BME280;3570;43.080;25.628;2022-08-03T01:15:58;-20131.00;;;23.35;85.79
7058;BME280;3570;43.080;25.628;2022-08-03T01:18:59;-20123.47;;;23.09;86.40
7058;BME280;3570;43.080;25.628;2022-08-03T01:22:07;-20127.97;;;23.25;87.53
7058;BME280;3570;43.080;25.628;2022-08-03T01:30:40;-20121.59;;;23.03;87.41
7058;BME280;3570;43.080;25.628;2022-08-03T01:33:41;-20112.34;;;22.71;90.84
7058;BME280;3570;43.080;25.628;2022-08-03T01:36:34;-20114.81;;;22.79;89.29
7058;BME280;3570;43.080;25.628;2022-08-03T01:39:19;-20126.38;;;23.19;87.81
7058;BME280;3570;43.080;25.628;2022-08-03T01:42:05;-20120.59;;;22.99;88.01
7058;BME280;3570;43.080;25.628;2022-08-03T01:44:51;-20127.81;;;23.24;87.71
7058;BME280;3570;43.080;25.628;2022-08-03T01:47:35;-20125.22;;;23.15;86.40
7058;BME280;3570;43.080;25.628;2022-08-03T01:50:26;-20130.13;;;23.32;86.61
7058;BME280;3570;43.080;25.628;2022-08-03T01:53:16;-20129.69;;;23.31;86.71
7058;BME280;3570;43.080;25.628;2022-08-03T01:56:02;-20129.84;;;23.31;86.67
7058;BME280;3570;43.080;25.628;2022-08-03T01:58:48;-20123.63;;;23.10;87.56
7058;BME280;3570;43.080;25.628;2022-08-03T02:01:35;-20118.72;;;22.93;88.18
7058;BME280;3570;43.080;25.628;2022-08-03T02:04:20;-20121.03;;;23.01;88.30
7058;BME280;3570;43.080;25.628;2022-08-03T02:07:07;-20108.88;;;22.59;90.06
7058;BME280;3570;43.080;25.628;2022-08-03T02:09:53;-20113.66;;;22.75;90.62
7058;BME280;3570;43.080;25.628;2022-08-03T02:12:38;-20095.84;;;22.13;92.31
7058;BME280;3570;43.080;25.628;2022-08-03T02:15:22;-20069.66;;;21.22;99.13
7058;BME280;3570;43.080;25.628;2022-08-03T02:18:08;-20056.31;;;20.76;100.00
7058;BME280;3570;43.080;25.628;2022-08-03T02:20:54;-20037.63;;;20.11;100.00
7058;BME280;3570;43.080;25.628;2022-08-03T02:23:39;-20031.69;;;19.91;100.00
7058;BME280;3570;43.080;25.628;2022-08-03T02:26:25;-20052.84;;;20.64;100.00
7058;BME280;3570;43.080;25.628;2022-08-03T02:29:19;-20071.53;;;21.29;100.00
7058;BME280;3570;43.080;25.628;2022-08-03T02:32:05;-20067.19;;;21.14;100.00
7058;BME280;3570;43.080;25.628;2022-08-03T02:34:52;-20057.19;;;20.79;100.00
7058;BME280;3570;43.080;25.628;2022-08-03T02:37:51;-20055.75;;;20.74;100.00
7058;BME280;3570;43.080;25.628;2022-08-03T02:40:37;-20082.69;;;21.68;100.00
7058;BME280;3570;43.080;25.628;2022-08-03T02:43:23;-20091.22;;;21.97;100.00
7058;BME280;3570;43.080;25.628;2022-08-03T02:46:09;-20079.22;;;21.56;99.67
7058;BME280;3570;43.080;25.628;2022-08-03T02:48:58;-20087.31;;;21.84;100.00
7058;BME280;3570;43.080;25.628;2022-08-03T02:51:43;-20090.34;;;21.94;98.80
7058;BME280;3570;43.080;25.628;2022-08-03T02:54:29;-20099.91;;;22.27;97.12
7058;BME280;3570;43.080;25.628;2022-08-03T02:57:15;-20095.41;;;22.12;96.00
7058;BME280;3570;43.080;25.628;2022-08-03T03:00:03;-20071.69;;;21.29;100.00
7058;BME280;3570;43.080;25.628;2022-08-03T03:02:48;-20053.00;;;20.65;100.00
7058;BME280;3570;43.080;25.628;2022-08-03T03:05:33;-20044.00;;;20.33;100.00
7058;BME280;3570;43.080;25.628;2022-08-03T03:08:20;-20039.06;;;20.16;100.00
7058;BME280;3570;43.080;25.628;2022-08-03T03:11:06;-20060.66;;;20.91;100.00
7058;BME280;3570;43.080;25.628;2022-08-03T03:13:52;-20069.94;;;21.23;100.00
7058;BME280;3570;43.080;25.628;2022-08-03T03:16:37;-20075.16;;;21.41;100.00
7058;BME280;3570;43.080;25.628;2022-08-03T03:19:22;-20067.91;;;21.16;100.00
7058;BME280;3570;43.080;25.628;2022-08-03T03:22:07;-20076.75;;;21.47;100.00
7058;BME280;3570;43.080;25.628;2022-08-03T03:24:53;-20080.94;;;21.62;100.00
7058;BME280;3570;43.080;25.628;2022-08-03T03:27:38;-20084.41;;;21.74;100.00
7058;BME280;3570;43.080;25.628;2022-08-03T03:30:23;-20091.94;;;22.00;99.91
7058;BME280;3570;43.080;25.628;2022-08-03T03:33:08;-20104.69;;;22.44;95.70
7058;BME280;3570;43.080;25.628;2022-08-03T03:35:52;-20108.44;;;22.57;93.94
7058;BME280;3570;43.080;25.628;2022-08-03T03:38:37;-20098.03;;;22.21;94.89
7058;BME280;3570;43.080;25.628;2022-08-03T03:41:21;-20090.22;;;21.94;96.94
7058;BME280;3570;43.080;25.628;2022-08-03T03:44:05;-20089.19;;;21.90;97.62
7058;BME280;3570;43.080;25.628;2022-08-03T03:46:49;-20078.63;;;21.53;100.00
7058;BME280;3570;43.080;25.628;2022-08-03T03:49:33;-20089.78;;;21.92;98.94
7058;BME280;3570;43.080;25.628;2022-08-03T03:52:17;-20094.69;;;22.09;96.40
7058;BME280;3570;43.080;25.628;2022-08-03T03:55:01;-20107.13;;;22.53;94.12
7058;BME280;3570;43.080;25.628;2022-08-03T03:57:46;-20102.06;;;22.35;94.41
7058;BME280;3570;43.080;25.628;2022-08-03T04:00:30;-20085.56;;;21.78;98.25
7058;BME280;3570;43.080;25.628;2022-08-03T04:03:14;-20087.31;;;21.84;99.29
7058;BME280;3570;43.080;25.628;2022-08-03T04:05:58;-20104.69;;;22.44;94.43
7058;BME280;3570;43.080;25.628;2022-08-03T04:09:01;-20108.44;;;22.57;92.43
7058;BME280;3570;43.080;25.628;2022-08-03T04:12:04;-20109.03;;;22.59;92.83
7058;BME280;3570;43.080;25.628;2022-08-03T04:14:50;-20117.13;;;22.87;90.92
7058;BME280;3570;43.080;25.628;2022-08-03T04:17:37;-20117.69;;;22.89;90.28
7058;BME280;3570;43.080;25.628;2022-08-03T04:20:25;-20113.94;;;22.76;91.61
7058;BME280;3570;43.080;25.628;2022-08-03T04:23:12;-20120.31;;;22.98;90.31
7058;BME280;3570;43.080;25.628;2022-08-03T04:25:57;-20130.41;;;23.33;88.53
7058;BME280;3570;43.080;25.628;2022-08-03T04:28:43;-20134.91;;;23.49;87.08
7058;BME280;3570;43.080;25.628;2022-08-03T04:31:29;-20130.41;;;23.33;87.16
7058;BME280;3570;43.080;25.628;2022-08-03T04:34:13;-20119.44;;;22.95;88.42
7058;BME280;3570;43.080;25.628;2022-08-03T04:37:00;-20113.78;;;22.76;88.94
7058;BME280;3570;43.080;25.628;2022-08-03T04:39:48;-20117.41;;;22.88;90.22
7058;BME280;3570;43.080;25.628;2022-08-03T04:42:35;-20125.38;;;23.16;88.39
7058;BME280;3570;43.080;25.628;2022-08-03T04:45:21;-20119.16;;;22.94;88.45
7058;BME280;3570;43.080;25.628;2022-08-03T04:48:06;-20124.78;;;23.14;87.52
7058;BME280;3570;43.080;25.628;2022-08-03T04:50:50;-20135.34;;;23.51;85.77
7058;BME280;3570;43.080;25.628;2022-08-03T04:53:34;-20129.56;;;23.30;85.37
7058;BME280;3570;43.080;25.628;2022-08-03T04:56:19;-20134.19;;;23.47;84.79
7058;BME280;3570;43.080;25.628;2022-08-03T04:59:03;-20144.16;;;23.81;84.53
7058;BME280;3570;43.080;25.628;2022-08-03T05:01:47;-20144.59;;;23.83;83.68
7058;BME280;3570;43.080;25.628;2022-08-03T05:04:31;-20152.09;;;24.09;82.82
7058;BME280;3570;43.080;25.628;2022-08-03T05:07:16;-20138.94;;;23.63;83.50
7058;BME280;3570;43.080;25.628;2022-08-03T05:10:01;-20153.25;;;24.13;83.07
7058;BME280;3570;43.080;25.628;2022-08-03T05:12:46;-20149.06;;;23.98;82.94
7058;BME280;3570;43.080;25.628;2022-08-03T05:15:30;-20146.31;;;23.89;83.30
7058;BME280;3570;43.080;25.628;2022-08-03T05:18:14;-20149.78;;;24.01;83.28
7058;BME280;3570;43.080;25.628;2022-08-03T05:20:59;-20153.69;;;24.14;81.90
7058;BME280;3570;43.080;25.628;2022-08-03T05:23:44;-20156.88;;;24.25;81.59
7058;BME280;3570;43.080;25.628;2022-08-03T05:26:28;-20151.81;;;24.08;80.88
7058;BME280;3570;43.080;25.628;2022-08-03T05:29:13;-20181.25;;;25.10;78.30
7058;BME280;3570;43.080;25.628;2022-08-03T05:31:57;-20194.97;;;25.58;75.20
7058;BME280;3570;43.080;25.628;2022-08-03T05:34:41;-20199.28;;;25.73;73.52
7058;BME280;3570;43.080;25.628;2022-08-03T05:37:26;-20216.75;;;26.34;71.66
7058;BME280;3570;43.080;25.628;2022-08-03T05:40:10;-20218.75;;;26.41;71.58
7058;BME280;3570;43.080;25.628;2022-08-03T05:42:55;-20207.22;;;26.01;72.51
7058;BME280;3570;43.080;25.628;2022-08-03T05:45:39;-20208.09;;;26.04;73.47
7058;BME280;3570;43.080;25.628;2022-08-03T05:48:24;-20213.44;;;26.23;72.15
7058;BME280;3570;43.080;25.628;2022-08-03T05:51:09;-20218.03;;;26.39;71.94
7058;BME280;3570;43.080;25.628;2022-08-03T05:53:56;-20225.66;;;26.65;69.72
7058;BME280;3570;43.080;25.628;2022-08-03T05:56:40;-20229.56;;;26.79;69.15
7058;BME280;3570;43.080;25.628;2022-08-03T05:59:24;-20222.50;;;26.54;68.49
7058;BME280;3570;43.080;25.628;2022-08-03T06:02:10;-20226.25;;;26.67;68.87
7058;BME280;3570;43.080;25.628;2022-08-03T06:04:54;-20234.47;;;26.96;68.17
7058;BME280;3570;43.080;25.628;2022-08-03T06:07:38;-20232.88;;;26.90;66.83
7058;BME280;3570;43.080;25.628;2022-08-03T06:10:22;-20233.59;;;26.93;65.89
7058;BME280;3570;43.080;25.628;2022-08-03T06:13:06;-20239.50;;;27.14;66.31
7058;BME280;3570;43.080;25.628;2022-08-03T06:15:50;-20241.22;;;27.20;64.52
7058;BME280;3570;43.080;25.628;2022-08-03T06:18:34;-20248.44;;;27.45;63.55
7058;BME280;3570;43.080;25.628;2022-08-03T06:21:18;-20258.06;;;27.78;61.33
7058;BME280;3570;43.080;25.628;2022-08-03T06:24:03;-20256.50;;;27.73;57.27
7058;BME280;3570;43.080;25.628;2022-08-03T06:26:47;-20262.69;;;27.95;57.97
7058;BME280;3570;43.080;25.628;2022-08-03T06:29:31;-20270.31;;;28.21;55.29
7058;BME280;3570;43.080;25.628;2022-08-03T06:32:15;-20275.91;;;28.41;55.40
7058;BME280;3570;43.080;25.628;2022-08-03T06:34:59;-20288.00;;;28.83;52.68
7058;BME280;3570;43.080;25.628;2022-08-03T06:37:45;-20291.00;;;28.94;52.17
7058;BME280;3570;43.080;25.628;2022-08-03T06:40:29;-20281.97;;;28.62;51.20
7058;BME280;3570;43.080;25.628;2022-08-03T06:43:16;-20279.22;;;28.52;50.39
7058;BME280;3570;43.080;25.628;2022-08-03T06:46:00;-20280.94;;;28.58;50.02
7058;BME280;3570;43.080;25.628;2022-08-03T06:48:44;-20274.03;;;28.34;49.14
7058;BME280;3570;43.080;25.628;2022-08-03T06:51:29;-20276.78;;;28.44;51.08
7058;BME280;3570;43.080;25.628;2022-08-03T06:54:14;-20279.09;;;28.52;49.39
7058;BME280;3570;43.080;25.628;2022-08-03T06:56:58;-20278.66;;;28.50;51.01
7058;BME280;3570;43.080;25.628;2022-08-03T06:59:42;-20276.50;;;28.43;52.16
7058;BME280;3570;43.080;25.628;2022-08-03T07:02:27;-20278.66;;;28.50;50.43
7058;BME280;3570;43.080;25.628;2022-08-03T07:05:11;-20279.38;;;28.53;50.03
7058;BME280;3570;43.080;25.628;2022-08-03T07:07:56;-20287.13;;;28.80;48.26
7058;BME280;3570;43.080;25.628;2022-08-03T07:10:44;-20290.00;;;28.90;49.16
7058;BME280;3570;43.080;25.628;2022-08-03T07:13:28;-20295.75;;;29.10;48.82
7058;BME280;3570;43.080;25.628;2022-08-03T07:16:12;-20310.84;;;29.63;47.39
7058;BME280;3570;43.080;25.628;2022-08-03T07:18:58;-20317.59;;;29.87;45.75
7058;BME280;3570;43.080;25.628;2022-08-03T07:21:42;-20328.94;;;30.26;44.48
7058;BME280;3570;43.080;25.628;2022-08-03T07:24:26;-20340.56;;;30.67;44.80
7058;BME280;3570;43.080;25.628;2022-08-03T07:27:10;-20336.53;;;30.53;43.26
7058;BME280;3570;43.080;25.628;2022-08-03T07:29:55;-20343.88;;;30.79;43.06
7058;BME280;3570;43.080;25.628;2022-08-03T07:32:40;-20354.19;;;31.15;43.64
7058;BME280;3570;43.080;25.628;2022-08-03T07:35:25;-20354.19;;;31.15;43.69
7058;BME280;3570;43.080;25.628;2022-08-03T07:38:09;-20343.28;;;30.77;44.50
7058;BME280;3570;43.080;25.628;2022-08-03T07:40:53;-20343.72;;;30.78;43.36
7058;BME280;3570;43.080;25.628;2022-08-03T07:43:37;-20336.97;;;30.54;44.73
7058;BME280;3570;43.080;25.628;2022-08-03T07:46:21;-20326.66;;;30.18;45.87
7058;BME280;3570;43.080;25.628;2022-08-03T07:49:05;-20322.91;;;30.05;45.79
7058;BME280;3570;43.080;25.628;2022-08-03T07:51:48;-20330.94;;;30.33;45.39
7058;BME280;3570;43.080;25.628;2022-08-03T07:54:52;-20329.09;;;30.27;45.93
7058;BME280;3570;43.080;25.628;2022-08-03T07:57:40;-20331.66;;;30.36;44.42
7058;BME280;3570;43.080;25.628;2022-08-03T08:00:24;-20320.47;;;29.97;45.83
7058;BME280;3570;43.080;25.628;2022-08-03T08:03:09;-20325.34;;;30.14;44.26
7058;BME280;3570;43.080;25.628;2022-08-03T08:05:54;-20311.72;;;29.66;44.96
7058;BME280;3570;43.080;25.628;2022-08-03T08:08:38;-20322.34;;;30.03;44.98
7058;BME280;3570;43.080;25.628;2022-08-03T08:11:23;-20320.31;;;29.96;45.17
7058;BME280;3570;43.080;25.628;2022-08-03T08:14:07;-20336.25;;;30.52;45.37
7058;BME280;3570;43.080;25.628;2022-08-03T08:16:52;-20347.03;;;30.90;43.06
7058;BME280;3570;43.080;25.628;2022-08-03T08:19:36;-20362.81;;;31.45;42.26
7058;BME280;3570;43.080;25.628;2022-08-03T08:22:20;-20358.34;;;31.29;42.03
7058;BME280;3570;43.080;25.628;2022-08-03T08:25:05;-20362.38;;;31.43;41.34
7058;BME280;3570;43.080;25.628;2022-08-03T08:27:49;-20354.78;;;31.17;41.65
7058;BME280;3570;43.080;25.628;2022-08-03T08:30:33;-20359.94;;;31.35;41.19
7058;BME280;3570;43.080;25.628;2022-08-03T08:33:17;-20359.06;;;31.32;41.02
7058;BME280;3570;43.080;25.628;2022-08-03T08:36:02;-20365.38;;;31.54;41.34
7058;BME280;3570;43.080;25.628;2022-08-03T08:38:46;-20364.38;;;31.51;41.29
7058;BME280;3570;43.080;25.628;2022-08-03T08:41:31;-20361.09;;;31.39;40.48
7058;BME280;3570;43.080;25.628;2022-08-03T08:44:17;-20360.94;;;31.38;40.42
7058;BME280;3570;43.080;25.628;2022-08-03T08:47:02;-20365.22;;;31.54;40.86
7058;BME280;3570;43.080;25.628;2022-08-03T08:49:53;-20366.97;;;31.60;40.27
7058;BME280;3570;43.080;25.628;2022-08-03T08:52:42;-20379.84;;;32.05;40.17
7058;BME280;3570;43.080;25.628;2022-08-03T08:55:26;-20386.59;;;32.28;39.52
7058;BME280;3570;43.080;25.628;2022-08-03T08:58:12;-20392.47;;;32.49;38.96
7058;BME280;3570;43.080;25.628;2022-08-03T09:00:59;-20396.75;;;32.64;38.80
7058;BME280;3570;43.080;25.628;2022-08-03T09:03:43;-20395.03;;;32.58;39.71
7058;BME280;3570;43.080;25.628;2022-08-03T09:06:28;-20406.06;;;32.97;38.17
7058;BME280;3570;43.080;25.628;2022-08-03T09:09:12;-20401.06;;;32.79;38.87
7058;BME280;3570;43.080;25.628;2022-08-03T09:11:56;-20410.78;;;33.13;38.12
7058;BME280;3570;43.080;25.628;2022-08-03T09:14:40;-20421.09;;;33.50;37.36
7058;BME280;3570;43.080;25.628;2022-08-03T09:17:39;-20416.66;;;33.34;37.54
7058;BME280;3570;43.080;25.628;2022-08-03T09:20:25;-20415.22;;;33.29;37.51
7058;BME280;3570;43.080;25.628;2022-08-03T09:23:09;-20430.81;;;33.84;36.69
7058;BME280;3570;43.080;25.628;2022-08-03T09:25:57;-20461.97;;;34.93;35.69
7058;BME280;3570;43.080;25.628;2022-08-03T09:28:42;-20485.22;;;35.75;32.79
7058;BME280;3570;43.080;25.628;2022-08-03T09:31:34;-20506.91;;;36.52;31.35
7058;BME280;3570;43.080;25.628;2022-08-03T09:34:24;-20492.94;;;36.03;32.06
7058;BME280;3570;43.080;25.628;2022-08-03T09:37:16;-20487.38;;;35.83;33.28
7058;BME280;3570;43.080;25.628;2022-08-03T09:40:00;-20532.97;;;37.44;30.75
7058;BME280;3570;43.080;25.628;2022-08-03T09:42:56;-20528.28;;;37.27;30.10
7058;BME280;3570;43.080;25.628;2022-08-03T09:45:41;-20531.28;;;37.38;30.09
7058;BME280;3570;43.080;25.628;2022-08-03T09:48:30;-20548.50;;;37.99;29.16
7058;BME280;3570;43.080;25.628;2022-08-03T09:51:14;-20567.28;;;38.65;28.42
7058;BME280;3570;43.080;25.628;2022-08-03T09:54:01;-20603.50;;;39.93;26.83
7058;BME280;3570;43.080;25.628;2022-08-03T09:56:47;-20602.34;;;39.89;26.62
7058;BME280;3570;43.080;25.628;2022-08-03T09:59:32;-20606.75;;;40.05;26.45
7058;BME280;3570;43.080;25.628;2022-08-03T10:02:20;-20576.09;;;38.96;27.09
7058;BME280;3570;43.080;25.628;2022-08-03T10:05:06;-20573.25;;;38.86;28.15
7058;BME280;3570;43.080;25.628;2022-08-03T10:07:51;-20590.56;;;39.47;27.00
7058;BME280;3570;43.080;25.628;2022-08-03T10:10:42;-20594.84;;;39.63;26.73
7058;BME280;3570;43.080;25.628;2022-08-03T10:13:26;-20587.72;;;39.37;27.57
7058;BME280;3570;43.080;25.628;2022-08-03T10:16:11;-20593.97;;;39.60;26.87
7058;BME280;3570;43.080;25.628;2022-08-03T10:18:55;-20612.44;;;40.25;26.44
7058;BME280;3570;43.080;25.628;2022-08-03T10:21:45;-20609.88;;;40.16;26.24
7058;BME280;3570;43.080;25.628;2022-08-03T10:24:33;-20624.34;;;40.67;25.80
7058;BME280;3570;43.080;25.628;2022-08-03T10:27:21;-20554.19;;;38.19;28.19
7058;BME280;3570;43.080;25.628;2022-08-03T10:30:07;-20509.47;;;36.61;30.18
7058;BME280;3570;43.080;25.628;2022-08-03T10:33:08;-20531.13;;;37.37;29.68
7058;BME280;3570;43.080;25.628;2022-08-03T10:35:56;-20564.00;;;38.53;27.55
7058;BME280;3570;43.080;25.628;2022-08-03T10:38:50;-20559.44;;;38.37;27.14
7058;BME280;3570;43.080;25.628;2022-08-03T10:41:39;-20519.72;;;36.97;28.62
7058;BME280;3570;43.080;25.628;2022-08-03T10:44:31;-20522.88;;;37.08;29.69
7058;BME280;3570;43.080;25.628;2022-08-03T10:47:16;-20563.44;;;38.51;27.56
7058;BME280;3570;43.080;25.628;2022-08-03T10:50:01;-20590.84;;;39.48;26.61
7058;BME280;3570;43.080;25.628;2022-08-03T10:53:00;-20618.97;;;40.48;25.59
7058;BME280;3570;43.080;25.628;2022-08-03T10:55:45;-20640.81;;;41.26;24.83
7058;BME280;3570;43.080;25.628;2022-08-03T10:58:51;-20646.19;;;41.45;24.57
7058;BME280;3570;43.080;25.628;2022-08-03T11:01:51;-20635.28;;;41.06;24.58
7058;BME280;3570;43.080;25.628;2022-08-03T11:04:35;-20639.09;;;41.19;24.59
7058;BME280;3570;43.080;25.628;2022-08-03T11:07:23;-20656.94;;;41.83;24.46
7058;BME280;3570;43.080;25.628;2022-08-03T11:10:30;-20663.59;;;42.06;24.30
7058;BME280;3570;43.080;25.628;2022-08-03T11:13:17;-20630.88;;;40.90;23.42
7058;BME280;3570;43.080;25.628;2022-08-03T11:16:17;-20605.91;;;40.02;25.18
7058;BME280;3570;43.080;25.628;2022-08-03T11:19:04;-20557.59;;;38.31;27.53
7058;BME280;3570;43.080;25.628;2022-08-03T11:30:09;-20522.44;;;37.07;29.51
7058;BME280;3570;43.080;25.628;2022-08-03T11:32:57;-20492.50;;;36.01;30.38
7058;BME280;3570;43.080;25.628;2022-08-03T11:35:58;-20472.81;;;35.32;31.54
7058;BME280;3570;43.080;25.628;2022-08-03T11:39:12;-20485.66;;;35.77;31.10
7058;BME280;3570;43.080;25.628;2022-08-03T11:41:57;-20555.75;;;38.24;28.44
7058;BME280;3570;43.080;25.628;2022-08-03T11:44:41;-20613.16;;;40.27;25.67
7058;BME280;3570;43.080;25.628;2022-08-03T11:47:28;-20648.59;;;41.53;24.40
7058;BME280;3570;43.080;25.628;2022-08-03T11:50:12;-20666.84;;;42.18;23.22
7058;BME280;3570;43.080;25.628;2022-08-03T11:52:56;-20636.81;;;41.11;23.57
7058;BME280;3570;43.080;25.628;2022-08-03T11:55:41;-20652.84;;;41.68;23.46
7058;BME280;3570;43.080;25.628;2022-08-03T11:58:28;-20619.25;;;40.49;25.55
7058;BME280;3570;43.080;25.628;2022-08-03T12:01:12;-20616.97;;;40.41;24.93
7058;BME280;3570;43.080;25.628;2022-08-03T12:04:02;-20674.63;;;42.46;23.12
7058;BME280;3570;43.080;25.628;2022-08-03T12:06:58;-20678.75;;;42.60;22.81
7058;BME280;3570;43.080;25.628;2022-08-03T12:09:43;-20641.94;;;41.30;23.88
7058;BME280;3570;43.080;25.628;2022-08-03T12:12:27;-20618.53;;;40.47;24.37
7058;BME280;3570;43.080;25.628;2022-08-03T12:15:11;-20620.53;;;40.54;24.92
7058;BME280;3570;43.080;25.628;2022-08-03T12:17:56;-20691.47;;;43.06;22.47
7058;BME280;3570;43.080;25.628;2022-08-03T12:20:40;-20708.72;;;43.67;21.32
7058;BME280;3570;43.080;25.628;2022-08-03T12:23:26;-20680.44;;;42.66;22.18
7058;BME280;3570;43.080;25.628;2022-08-03T12:26:10;-20677.91;;;42.57;22.76
7058;BME280;3570;43.080;25.628;2022-08-03T12:28:54;-20671.25;;;42.34;22.25
7058;BME280;3570;43.080;25.628;2022-08-03T12:31:38;-20702.22;;;43.44;21.62
7058;BME280;3570;43.080;25.628;2022-08-03T12:34:22;-20695.56;;;43.20;21.97
7058;BME280;3570;43.080;25.628;2022-08-03T12:37:06;-20628.59;;;40.82;23.24
7058;BME280;3570;43.080;25.628;2022-08-03T12:39:56;-20588.44;;;39.40;24.54
7058;BME280;3570;43.080;25.628;2022-08-03T12:42:42;-20555.03;;;38.22;26.38
7058;BME280;3570;43.080;25.628;2022-08-03T12:45:28;-20532.84;;;37.43;28.37
7058;BME280;3570;43.080;25.628;2022-08-03T12:48:14;-20508.63;;;36.58;28.66
7058;BME280;3570;43.080;25.628;2022-08-03T12:51:09;-20485.50;;;35.76;29.69
7058;BME280;3570;43.080;25.628;2022-08-03T12:53:54;-20483.38;;;35.69;29.50
7058;BME280;3570;43.080;25.628;2022-08-03T12:59:41;-20612.16;;;40.24;24.53
7058;BME280;3570;43.080;25.628;2022-08-03T13:02:26;-20627.19;;;40.77;23.97
7058;BME280;3570;43.080;25.628;2022-08-03T13:05:14;-20682.84;;;42.75;22.49
7058;BME280;3570;43.080;25.628;2022-08-03T13:07:59;-20734.53;;;44.59;20.58
7058;BME280;3570;43.080;25.628;2022-08-03T13:10:44;-20661.75;;;42.00;22.00
7058;BME280;3570;43.080;25.628;2022-08-03T13:13:38;-20586.03;;;39.31;24.95
7058;BME280;3570;43.080;25.628;2022-08-03T13:16:23;-20553.03;;;38.15;27.35
7058;BME280;3570;43.080;25.628;2022-08-03T13:19:07;-20518.31;;;36.92;28.06
7058;BME280;3570;43.080;25.628;2022-08-03T13:21:53;-20579.91;;;39.10;26.14
7058;BME280;3570;43.080;25.628;2022-08-03T13:24:37;-20599.66;;;39.80;25.68
7058;BME280;3570;43.080;25.628;2022-08-03T13:27:23;-20649.56;;;41.57;24.02
7058;BME280;3570;43.080;25.628;2022-08-03T13:30:08;-20681.28;;;42.69;22.05
7058;BME280;3570;43.080;25.628;2022-08-03T13:32:53;-20708.72;;;43.67;21.35
7058;BME280;3570;43.080;25.628;2022-08-03T13:35:37;-20709.56;;;43.70;21.20
7058;BME280;3570;43.080;25.628;2022-08-03T13:38:21;-20752.59;;;45.23;20.01
7058;BME280;3570;43.080;25.628;2022-08-03T13:41:05;-20785.41;;;46.40;18.95
7058;BME280;3570;43.080;25.628;2022-08-03T13:43:49;-20795.13;;;46.75;18.57
7058;BME280;3570;43.080;25.628;2022-08-03T13:46:33;-20820.28;;;47.65;17.71
7058;BME280;3570;43.080;25.628;2022-08-03T13:49:17;-20817.06;;;47.54;18.17
7058;BME280;3570;43.080;25.628;2022-08-03T13:52:02;-20817.75;;;47.56;18.12
7058;BME280;3570;43.080;25.628;2022-08-03T13:54:46;-20785.13;;;46.39;18.53
7058;BME280;3570;43.080;25.628;2022-08-03T13:57:30;-20788.50;;;46.52;18.10
7058;BME280;3570;43.080;25.628;2022-08-03T14:00:16;-20789.63;;;46.56;17.80
7058;BME280;3570;43.080;25.628;2022-08-03T14:03:01;-20677.63;;;42.56;21.13
7058;BME280;3570;43.080;25.628;2022-08-03T14:05:45;-20607.63;;;40.08;23.29
7058;BME280;3570;43.080;25.628;2022-08-03T14:08:30;-20559.88;;;38.39;25.64
7058;BME280;3570;43.080;25.628;2022-08-03T14:11:15;-20548.78;;;38.00;26.07
7058;BME280;3570;43.080;25.628;2022-08-03T14:13:59;-20595.97;;;39.67;24.43
7058;BME280;3570;43.080;25.628;2022-08-03T14:16:43;-20640.81;;;41.26;22.82
7058;BME280;3570;43.080;25.628;2022-08-03T14:19:27;-20663.88;;;42.07;21.56
7058;BME280;3570;43.080;25.628;2022-08-03T14:22:11;-20732.00;;;44.50;19.62
7058;BME280;3570;43.080;25.628;2022-08-03T14:24:55;-20772.31;;;45.94;18.82
7058;BME280;3570;43.080;25.628;2022-08-03T14:27:40;-20818.03;;;47.57;17.42
7058;BME280;3570;43.080;25.628;2022-08-03T14:30:24;-20830.69;;;48.02;17.32
7058;BME280;3570;43.080;25.628;2022-08-03T14:33:08;-20848.63;;;48.67;16.39
7058;BME280;3570;43.080;25.628;2022-08-03T14:35:53;-20859.88;;;49.07;15.88
7058;BME280;3570;43.080;25.628;2022-08-03T14:38:37;-20843.03;;;48.47;16.00
7058;BME280;3570;43.080;25.628;2022-08-03T14:41:21;-20819.72;;;47.63;16.78
7058;BME280;3570;43.080;25.628;2022-08-03T14:44:05;-20721.72;;;44.13;18.91
7058;BME280;3570;43.080;25.628;2022-08-03T14:46:49;-20644.06;;;41.37;21.27
7058;BME280;3570;43.080;25.628;2022-08-03T14:49:33;-20610.03;;;40.16;21.98
7058;BME280;3570;43.080;25.628;2022-08-03T14:52:17;-20594.28;;;39.61;22.43
7058;BME280;3570;43.080;25.628;2022-08-03T14:55:01;-20591.28;;;39.50;22.53
7058;BME280;3570;43.080;25.628;2022-08-03T14:57:45;-20584.75;;;39.27;22.37
7058;BME280;3570;43.080;25.628;2022-08-03T15:00:29;-20579.91;;;39.10;21.70